createdAt,value
2018-10-05T02:25:08.742Z,989.19
2018-10-05T04:00:27.681Z,988.84
2018-10-05T04:01:27.676Z,988.88
2018-10-05T04:02:27.916Z,988.83
2018-10-05T04:03:27.642Z,988.85
2018-10-05T04:04:27.650Z,988.83
2018-10-05T04:05:27.621Z,988.81
2018-10-05T04:06:27.620Z,988.83
2018-10-05T04:07:27.634Z,988.82
2018-10-05T04:08:27.584Z,988.78
2018-10-05T04:09:27.574Z,988.81
2018-10-05T04:10:27.564Z,988.80
2018-10-05T04:11:27.563Z,988.78
2018-10-05T04:12:27.543Z,988.78
2018-10-05T04:13:27.529Z,988.79
2018-10-05T04:14:27.516Z,988.85
2018-10-05T04:15:27.509Z,988.89
2018-10-05T04:16:27.507Z,988.82
2018-10-05T04:17:27.483Z,988.86
2018-10-05T04:18:27.472Z,988.80
2018-10-05T04:19:27.477Z,988.88
2018-10-05T04:20:27.492Z,988.87
2018-10-05T04:21:27.439Z,988.82
2018-10-05T04:22:27.434Z,988.82
2018-10-05T04:23:27.425Z,988.78
2018-10-05T04:24:27.405Z,988.74
2018-10-05T04:25:27.392Z,988.74
2018-10-05T04:26:27.394Z,988.74
2018-10-05T04:27:27.460Z,988.72
2018-10-05T04:28:27.368Z,988.72
2018-10-05T04:29:27.352Z,988.72
2018-10-05T04:30:27.343Z,988.68
2018-10-05T04:31:27.324Z,988.70
2018-10-05T04:32:27.321Z,988.65
2018-10-05T04:33:27.301Z,988.63
2018-10-05T04:34:27.290Z,988.62
2018-10-05T04:35:27.336Z,988.63
2018-10-05T04:36:27.272Z,988.65
2018-10-05T04:37:27.266Z,988.60
2018-10-05T04:38:27.294Z,988.66
2018-10-05T04:39:27.234Z,988.60
2018-10-05T04:40:27.222Z,988.64
2018-10-05T04:41:27.221Z,988.70
2018-10-05T04:42:27.210Z,988.72
2018-10-05T04:43:27.188Z,988.73
2018-10-05T04:44:27.175Z,988.72
2018-10-05T04:45:27.169Z,988.73
2018-10-05T04:46:27.182Z,988.77
2018-10-05T04:47:27.155Z,988.77
2018-10-05T04:48:27.130Z,988.77
2018-10-05T04:49:27.163Z,988.76
2018-10-05T04:50:27.109Z,988.75
2018-10-05T04:51:27.127Z,988.77
2018-10-05T04:52:27.227Z,988.73
2018-10-05T04:53:27.075Z,988.77
2018-10-05T04:54:27.063Z,988.76
2018-10-05T04:55:27.052Z,988.71
2018-10-05T04:56:27.056Z,988.68
2018-10-05T04:57:27.052Z,988.72
2018-10-05T04:58:27.018Z,988.67
2018-10-05T04:59:27.007Z,988.67
2018-10-05T05:00:27.032Z,988.64
2018-10-05T05:01:26.984Z,988.64
2018-10-05T05:02:26.981Z,988.68
2018-10-05T05:03:27.005Z,988.69
2018-10-05T05:04:26.950Z,988.66
2018-10-05T05:05:27.024Z,988.69
2018-10-05T05:06:26.935Z,988.67
2018-10-05T05:07:26.927Z,988.71
2018-10-05T05:08:26.963Z,988.73
2018-10-05T05:09:26.892Z,988.70
2018-10-05T05:10:26.975Z,988.72
2018-10-05T05:11:26.910Z,988.74
2018-10-05T05:12:26.870Z,988.74
2018-10-05T05:13:26.848Z,988.73
2018-10-05T05:14:26.870Z,988.70
2018-10-05T05:15:26.824Z,988.69
2018-10-05T05:16:26.813Z,988.69
2018-10-05T05:17:26.822Z,988.62
2018-10-05T05:18:26.835Z,988.67
2018-10-05T05:19:26.842Z,988.66
2018-10-05T05:20:26.768Z,988.66
2018-10-05T05:21:26.758Z,988.72
2018-10-05T05:22:26.765Z,988.69
2018-10-05T05:23:26.734Z,988.67
2018-10-05T05:24:27.059Z,988.69
2018-10-05T05:25:26.712Z,988.70
2018-10-05T05:26:26.705Z,988.69
2018-10-05T05:27:26.701Z,988.69
2018-10-05T05:28:26.677Z,988.68
2018-10-05T05:29:26.727Z,988.70
2018-10-05T05:30:26.654Z,988.72
2018-10-05T05:31:26.643Z,988.70
2018-10-05T05:32:26.644Z,988.69
2018-10-05T05:33:26.658Z,988.72
2018-10-05T05:34:26.608Z,988.67
2018-10-05T05:35:26.596Z,988.67
2018-10-05T05:36:26.585Z,988.67
2018-10-05T05:37:26.591Z,988.66
2018-10-05T05:38:26.595Z,988.64
2018-10-05T05:39:26.552Z,988.62
2018-10-05T05:40:26.567Z,988.63
2018-10-05T05:41:26.528Z,988.67
2018-10-05T05:42:26.531Z,988.64
2018-10-05T05:43:26.592Z,988.66
2018-10-05T05:44:26.494Z,988.65
2018-10-05T05:45:26.483Z,988.66
2018-10-05T05:46:26.472Z,988.64
2018-10-05T05:47:26.475Z,988.65
2018-10-05T05:48:26.508Z,988.67
2018-10-05T05:49:26.438Z,988.64
2018-10-05T05:50:26.427Z,988.69
2018-10-05T05:51:26.415Z,988.67
2018-10-05T05:52:26.416Z,988.71
2018-10-05T05:53:26.392Z,988.73
2018-10-05T05:54:26.438Z,988.71
2018-10-05T05:55:26.373Z,988.68
2018-10-05T05:56:26.361Z,988.72
2018-10-05T05:57:26.360Z,988.67
2018-10-05T05:58:26.347Z,988.68
2018-10-05T05:59:26.325Z,988.67
2018-10-05T06:00:26.313Z,988.61
2018-10-05T06:01:26.302Z,988.64
2018-10-05T06:02:26.305Z,988.61
2018-10-05T06:03:26.279Z,988.65
2018-10-05T06:04:26.266Z,988.68
2018-10-05T06:05:26.256Z,988.68
2018-10-05T06:06:26.249Z,988.66
2018-10-05T06:07:26.252Z,988.62
2018-10-05T06:08:26.221Z,988.63
2018-10-05T06:09:26.262Z,988.60
2018-10-05T06:10:26.206Z,988.58
2018-10-05T06:11:26.189Z,988.63
2018-10-05T06:12:26.205Z,988.57
2018-10-05T06:13:26.172Z,988.56
2018-10-05T06:14:26.202Z,988.59
2018-10-05T06:15:26.149Z,988.63
2018-10-05T06:16:26.158Z,988.66
2018-10-05T06:17:26.138Z,988.66
2018-10-05T06:18:26.108Z,988.64
2018-10-05T06:19:26.117Z,988.64
2018-10-05T06:20:26.087Z,988.66
2018-10-05T06:21:26.117Z,988.61
2018-10-05T06:22:26.386Z,988.57
2018-10-05T06:23:26.067Z,988.59
2018-10-05T06:24:26.040Z,988.60
2018-10-05T06:25:26.039Z,988.53
2018-10-05T06:26:26.017Z,988.55
2018-10-05T06:27:26.086Z,988.51
2018-10-05T06:28:26.044Z,988.53
2018-10-05T06:29:25.987Z,988.47
2018-10-05T06:30:26.012Z,988.50
2018-10-05T06:31:25.964Z,988.41
2018-10-05T06:32:25.949Z,988.49
2018-10-05T06:33:25.988Z,988.49
2018-10-05T06:34:25.947Z,988.51
2018-10-05T06:35:25.923Z,988.50
2018-10-05T06:36:25.908Z,988.51
2018-10-05T06:37:25.892Z,988.52
2018-10-05T06:38:25.892Z,988.50
2018-10-05T06:39:25.890Z,988.53
2018-10-05T06:40:25.858Z,988.59
2018-10-05T06:41:25.850Z,988.59
2018-10-05T06:42:25.939Z,988.59
2018-10-05T06:43:25.836Z,988.55
2018-10-05T06:44:25.832Z,988.58
2018-10-05T06:45:25.813Z,988.61
2018-10-05T06:46:25.789Z,988.61
2018-10-05T06:47:25.783Z,988.59
2018-10-05T06:48:25.790Z,988.60
2018-10-05T06:49:25.813Z,988.62
2018-10-05T06:50:25.800Z,988.63
2018-10-05T06:51:25.733Z,988.61
2018-10-05T06:52:25.729Z,988.61
2018-10-05T06:53:25.823Z,988.60
2018-10-05T06:54:25.782Z,988.61
2018-10-05T06:55:25.760Z,988.61
2018-10-05T06:56:25.680Z,988.63
2018-10-05T06:57:25.742Z,988.61
2018-10-05T06:58:25.691Z,988.63
2018-10-05T06:59:25.651Z,988.65
2018-10-05T07:00:25.644Z,988.67
2018-10-05T07:01:25.731Z,988.65
2018-10-05T07:02:25.620Z,988.61
2018-10-05T07:03:25.610Z,988.65
2018-10-05T07:04:25.589Z,988.69
2018-10-05T07:05:25.613Z,988.67
2018-10-05T07:06:25.566Z,988.67
2018-10-05T07:07:25.594Z,988.66
2018-10-05T07:08:25.566Z,988.67
2018-10-05T07:09:25.533Z,988.68
2018-10-05T07:10:25.553Z,988.62
2018-10-05T07:11:25.538Z,988.67
2018-10-05T07:12:25.498Z,988.66
2018-10-05T07:13:25.517Z,988.69
2018-10-05T07:14:25.970Z,988.70
2018-10-05T07:15:25.455Z,988.65
2018-10-05T07:16:25.538Z,988.68
2018-10-05T07:17:25.442Z,988.62
2018-10-05T07:18:25.442Z,988.63
2018-10-05T07:19:25.478Z,988.61
2018-10-05T07:20:25.409Z,988.59
2018-10-05T07:21:25.544Z,988.60
2018-10-05T07:22:25.460Z,988.57
2018-10-05T07:23:25.484Z,988.59
2018-10-05T07:24:25.417Z,988.56
2018-10-05T07:25:25.350Z,988.58
2018-10-05T07:26:25.356Z,988.55
2018-10-05T07:27:25.341Z,988.58
2018-10-05T07:28:25.661Z,988.60
2018-10-05T07:29:25.310Z,988.56
2018-10-05T07:30:25.457Z,988.60
2018-10-05T07:31:26.220Z,988.58
2018-10-05T07:32:25.372Z,988.55
2018-10-05T07:33:25.276Z,988.64
2018-10-05T07:34:25.257Z,988.62
2018-10-05T07:35:25.237Z,988.59
2018-10-05T07:36:25.224Z,988.61
2018-10-05T07:37:25.261Z,988.57
2018-10-05T07:38:25.416Z,988.53
2018-10-05T07:39:25.196Z,988.56
2018-10-05T07:40:25.180Z,988.52
2018-10-05T07:41:25.196Z,988.54
2018-10-05T07:42:25.159Z,988.50
2018-10-05T07:43:25.159Z,988.53
2018-10-05T07:44:25.136Z,988.51
2018-10-05T07:45:25.138Z,988.46
2018-10-05T07:46:25.216Z,988.48
2018-10-05T07:47:25.234Z,988.46
2018-10-05T07:48:25.096Z,988.48
2018-10-05T07:49:25.093Z,988.46
2018-10-05T07:50:25.070Z,988.49
2018-10-05T07:51:25.055Z,988.50
2018-10-05T07:52:25.043Z,988.48
2018-10-05T07:53:25.148Z,988.48
2018-10-05T07:54:25.026Z,988.46
2018-10-05T07:55:25.006Z,988.44
2018-10-05T07:56:24.998Z,988.41
2018-10-05T07:57:25.054Z,988.40
2018-10-05T07:58:24.988Z,988.39
2018-10-05T07:59:24.968Z,988.37
2018-10-05T08:00:24.961Z,988.39
2018-10-05T08:01:24.942Z,988.36
2018-10-05T08:02:24.952Z,988.26
2018-10-05T08:03:24.930Z,988.30
2018-10-05T08:04:24.937Z,988.31
2018-10-05T08:05:24.897Z,988.25
2018-10-05T08:06:24.877Z,988.25
2018-10-05T08:07:24.873Z,988.23
2018-10-05T08:08:24.869Z,988.19
2018-10-05T08:09:24.917Z,988.21
2018-10-05T08:10:24.840Z,988.18
2018-10-05T08:11:24.829Z,988.18
2018-10-05T08:12:24.857Z,988.19
2018-10-05T08:13:25.170Z,988.22
2018-10-05T08:14:24.794Z,988.16
2018-10-05T08:15:25.233Z,988.19
2018-10-05T08:16:24.779Z,988.19
2018-10-05T08:17:24.772Z,988.17
2018-10-05T08:18:24.816Z,988.17
2018-10-05T08:19:24.739Z,988.13
2018-10-05T08:20:24.727Z,988.15
2018-10-05T08:21:24.758Z,988.19
2018-10-05T08:22:24.703Z,988.14
2018-10-05T08:23:24.705Z,988.14
2018-10-05T08:24:24.680Z,988.14
2018-10-05T08:25:24.672Z,988.13
2018-10-05T08:26:24.658Z,988.07
2018-10-05T08:27:24.647Z,988.10
2018-10-05T08:28:24.647Z,988.08
2018-10-05T08:29:24.738Z,988.11
2018-10-05T08:30:24.615Z,988.09
2018-10-05T08:31:24.604Z,988.05
2018-10-05T08:32:24.629Z,988.03
2018-10-05T08:33:24.586Z,988.03
2018-10-05T08:34:24.625Z,988.03
2018-10-05T08:35:24.626Z,988.08
2018-10-05T08:36:24.544Z,988.02
2018-10-05T08:37:24.659Z,988.02
2018-10-05T08:38:24.531Z,987.99
2018-10-05T08:39:24.976Z,988.00
2018-10-05T08:40:24.500Z,988.00
2018-10-05T08:41:24.480Z,987.97
2018-10-05T08:42:24.476Z,988.00
2018-10-05T08:43:24.610Z,987.97
2018-10-05T08:44:24.461Z,987.98
2018-10-05T08:45:24.565Z,987.97
2018-10-05T08:46:24.427Z,987.99
2018-10-05T08:47:24.415Z,987.98
2018-10-05T08:48:24.408Z,988.01
2018-10-05T08:49:24.409Z,987.98
2018-10-05T08:50:24.564Z,988.04
2018-10-05T08:51:24.395Z,987.91
2018-10-05T08:52:24.453Z,987.90
2018-10-05T08:53:24.349Z,987.93
2018-10-05T08:54:24.959Z,987.84
2018-10-05T08:55:25.456Z,987.85
2018-10-05T08:56:24.314Z,987.86
2018-10-05T08:57:24.303Z,987.81
2018-10-05T08:58:24.458Z,987.83
2018-10-05T08:59:25.201Z,987.80
2018-10-05T09:00:24.341Z,987.76
2018-10-05T09:01:24.529Z,987.78
2018-10-05T09:02:24.245Z,987.79
2018-10-05T09:03:24.237Z,987.76
2018-10-05T09:04:24.236Z,987.74
2018-10-05T09:05:25.225Z,987.70
2018-10-05T09:06:24.201Z,987.76
2018-10-05T09:07:24.191Z,987.71
2018-10-05T09:08:24.177Z,987.70
2018-10-05T09:09:24.183Z,987.63
2018-10-05T09:10:24.156Z,987.60
2018-10-05T09:11:24.200Z,987.60
2018-10-05T09:12:24.144Z,987.59
2018-10-05T09:13:24.125Z,987.60
2018-10-05T09:14:24.126Z,987.56
2018-10-05T09:15:24.103Z,987.52
2018-10-05T09:16:24.079Z,987.48
2018-10-05T09:17:24.081Z,987.48
2018-10-05T09:18:24.069Z,987.48
2018-10-05T09:19:24.072Z,987.42
2018-10-05T09:20:24.234Z,987.43
2018-10-05T09:21:24.035Z,987.42
2018-10-05T09:22:24.023Z,987.38
2018-10-05T09:23:24.012Z,987.34
2018-10-05T09:24:24.232Z,987.34
2018-10-05T09:25:23.989Z,987.27
2018-10-05T09:26:23.981Z,987.29
2018-10-05T09:27:23.983Z,987.25
2018-10-05T09:28:23.958Z,987.21
2018-10-05T09:29:23.956Z,987.17
2018-10-05T09:30:23.933Z,987.13
2018-10-05T09:31:23.917Z,987.11
2018-10-05T09:32:24.255Z,987.08
2018-10-05T09:33:23.908Z,987.05
2018-10-05T09:34:23.901Z,987.05
2018-10-05T09:35:23.881Z,987.00
2018-10-05T09:36:23.869Z,987.06
2018-10-05T09:37:23.913Z,986.98
2018-10-05T09:38:23.846Z,986.94
2018-10-05T09:39:24.095Z,986.96
2018-10-05T09:40:23.820Z,986.95
2018-10-05T09:41:23.813Z,986.97
2018-10-05T09:42:23.801Z,986.98
2018-10-05T09:43:23.790Z,986.87
2018-10-05T09:44:23.791Z,986.84
2018-10-05T09:45:23.865Z,986.81
2018-10-05T09:46:24.328Z,986.79
2018-10-05T09:47:23.742Z,986.80
2018-10-05T09:48:24.011Z,986.73
2018-10-05T09:49:23.730Z,986.74
2018-10-05T09:50:23.710Z,986.66
2018-10-05T09:51:23.704Z,986.68
2018-10-05T09:52:24.762Z,986.59
2018-10-05T09:53:23.672Z,986.63
2018-10-05T09:54:23.674Z,986.58
2018-10-05T09:55:23.651Z,986.56
2018-10-05T09:56:23.648Z,986.52
2018-10-05T09:57:23.628Z,986.55
2018-10-05T09:58:23.619Z,986.54
2018-10-05T09:59:23.617Z,986.42
2018-10-05T10:00:23.594Z,986.43
2018-10-05T10:01:23.611Z,986.41
2018-10-05T10:02:23.572Z,986.39
2018-10-05T10:03:23.652Z,986.40
2018-10-05T10:04:23.561Z,986.30
2018-10-05T10:05:23.542Z,986.37
2018-10-05T10:06:23.535Z,986.34
2018-10-05T10:07:23.524Z,986.31
2018-10-05T10:08:23.529Z,986.28
2018-10-05T10:09:23.504Z,986.29
2018-10-05T10:10:23.486Z,986.28
2018-10-05T10:11:23.467Z,986.24
2018-10-05T10:12:25.187Z,986.27
2018-10-05T10:13:23.448Z,986.25
2018-10-05T10:14:23.447Z,986.16
2018-10-05T10:15:23.424Z,986.17
2018-10-05T10:16:23.947Z,986.17
2018-10-05T10:17:23.402Z,986.12
2018-10-05T10:18:23.386Z,986.13
2018-10-05T10:19:23.394Z,986.11
2018-10-05T10:20:23.528Z,986.14
2018-10-05T10:21:23.357Z,986.15
2018-10-05T10:22:23.910Z,986.13
2018-10-05T10:23:23.341Z,986.14
2018-10-05T10:24:23.335Z,986.13
2018-10-05T10:25:23.374Z,986.08
2018-10-05T10:26:23.315Z,986.11
2018-10-05T10:27:23.289Z,986.10
2018-10-05T10:28:23.343Z,986.06
2018-10-05T10:29:23.349Z,986.09
2018-10-05T10:30:23.258Z,986.05
2018-10-05T10:31:23.256Z,986.06
2018-10-05T10:32:23.233Z,986.02
2018-10-05T10:33:23.225Z,985.99
2018-10-05T10:34:23.266Z,985.96
2018-10-05T10:35:23.199Z,985.95
2018-10-05T10:36:23.288Z,985.96
2018-10-05T10:37:23.177Z,985.91
2018-10-05T10:38:23.166Z,985.94
2018-10-05T10:39:23.315Z,985.86
2018-10-05T10:40:23.155Z,985.80
2018-10-05T10:41:23.136Z,985.80
2018-10-05T10:42:23.116Z,985.85
2018-10-05T10:43:23.119Z,985.81
2018-10-05T10:44:23.098Z,985.85
2018-10-05T10:45:24.355Z,985.76
2018-10-05T10:46:23.775Z,985.75
2018-10-05T10:47:23.785Z,985.76
2018-10-05T10:48:23.053Z,985.74
2018-10-05T10:49:23.041Z,985.73
2018-10-05T10:50:23.039Z,985.79
2018-10-05T10:51:23.724Z,985.75
2018-10-05T10:52:23.127Z,985.70
2018-10-05T10:53:23.303Z,985.71
2018-10-05T10:54:22.985Z,985.70
2018-10-05T10:55:22.995Z,985.68
2018-10-05T10:56:23.005Z,985.71
2018-10-05T10:57:22.952Z,985.67
2018-10-05T10:58:23.616Z,985.69
2018-10-05T10:59:23.289Z,985.63
2018-10-05T11:00:23.292Z,985.64
2018-10-05T11:01:22.907Z,985.63
2018-10-05T11:02:22.895Z,985.63
2018-10-05T11:03:22.983Z,985.65
2018-10-05T11:04:22.930Z,985.63
2018-10-05T11:05:23.213Z,985.55
2018-10-05T11:06:23.293Z,985.58
2018-10-05T11:07:22.839Z,985.59
2018-10-05T11:08:22.926Z,985.58
2018-10-05T11:09:22.810Z,985.50
2018-10-05T11:10:22.817Z,985.49
2018-10-05T11:11:23.179Z,985.46
2018-10-05T11:12:22.783Z,985.43
2018-10-05T11:13:22.927Z,985.45
2018-10-05T11:14:22.766Z,985.42
2018-10-05T11:15:22.761Z,985.39
2018-10-05T11:16:22.859Z,985.39
2018-10-05T11:17:22.731Z,985.36
2018-10-05T11:18:22.965Z,985.35
2018-10-05T11:19:23.271Z,985.34
2018-10-05T11:20:22.704Z,985.33
2018-10-05T11:21:22.677Z,985.29
2018-10-05T11:22:22.670Z,985.28
2018-10-05T11:23:22.895Z,985.22
2018-10-05T11:24:23.106Z,985.23
2018-10-05T11:25:22.873Z,985.22
2018-10-05T11:26:22.610Z,985.23
2018-10-05T11:27:22.618Z,985.22
2018-10-05T11:28:22.614Z,985.20
2018-10-05T11:29:22.597Z,985.21
2018-10-05T11:30:22.715Z,985.14
2018-10-05T11:31:22.569Z,985.13
2018-10-05T11:32:22.902Z,985.11
2018-10-05T11:33:22.571Z,985.14
2018-10-05T11:34:22.539Z,985.09
2018-10-05T11:35:22.539Z,985.11
2018-10-05T11:36:22.517Z,985.09
2018-10-05T11:37:22.501Z,985.05
2018-10-05T11:38:22.596Z,985.06
2018-10-05T11:39:22.479Z,985.01
2018-10-05T11:40:23.268Z,985.02
2018-10-05T11:41:22.458Z,984.99
2018-10-05T11:42:22.445Z,984.97
2018-10-05T11:43:22.673Z,984.94
2018-10-05T11:44:22.420Z,984.92
2018-10-05T11:45:22.454Z,984.89
2018-10-05T11:46:22.457Z,984.92
2018-10-05T11:47:22.383Z,984.88
2018-10-05T11:48:22.377Z,984.86
2018-10-05T11:49:22.366Z,984.89
2018-10-05T11:50:22.367Z,984.90
2018-10-05T11:51:22.347Z,984.88
2018-10-05T11:52:22.384Z,984.79
2018-10-05T11:53:22.466Z,984.78
2018-10-05T11:54:22.321Z,984.74
2018-10-05T11:55:22.333Z,984.74
2018-10-05T11:56:22.287Z,984.72
2018-10-05T11:57:22.277Z,984.70
2018-10-05T11:58:22.270Z,984.67
2018-10-05T11:59:22.412Z,984.68
2018-10-05T12:00:22.266Z,984.65
2018-10-05T12:01:22.231Z,984.62
2018-10-05T12:02:22.256Z,984.63
2018-10-05T12:03:22.214Z,984.61
2018-10-05T12:04:22.198Z,984.57
2018-10-05T12:05:22.424Z,984.57
2018-10-05T12:06:22.171Z,984.55
2018-10-05T12:07:29.239Z,984.56
2018-10-05T12:08:22.159Z,984.54
2018-10-05T12:09:22.130Z,984.55
2018-10-05T12:10:22.142Z,984.55
2018-10-05T12:11:22.119Z,984.53
2018-10-05T12:12:22.112Z,984.52
2018-10-05T12:13:22.094Z,984.49
2018-10-05T12:14:22.086Z,984.44
2018-10-05T12:15:22.086Z,984.46
2018-10-05T12:16:22.063Z,984.45
2018-10-05T12:17:22.051Z,984.43
2018-10-05T12:18:22.040Z,984.43
2018-10-05T12:19:22.032Z,984.41
2018-10-05T12:20:22.033Z,984.39
2018-10-05T12:21:22.011Z,984.42
2018-10-05T12:22:21.996Z,984.41
2018-10-05T12:23:21.984Z,984.40
2018-10-05T12:24:21.972Z,984.40
2018-10-05T12:25:21.977Z,984.42
2018-10-05T12:26:21.942Z,984.42
2018-10-05T12:27:21.943Z,984.44
2018-10-05T12:28:21.928Z,984.47
2018-10-05T12:29:21.917Z,984.44
2018-10-05T12:30:21.920Z,984.43
2018-10-05T12:31:21.893Z,984.42
2018-10-05T12:32:21.885Z,984.42
2018-10-05T12:33:22.064Z,984.44
2018-10-05T12:34:21.862Z,984.43
2018-10-05T12:35:21.860Z,984.39
2018-10-05T12:36:21.839Z,984.45
2018-10-05T12:37:21.827Z,984.45
2018-10-05T12:38:21.817Z,984.45
2018-10-05T12:39:21.804Z,984.46
2018-10-05T12:40:21.817Z,984.43
2018-10-05T12:41:21.780Z,984.41
2018-10-05T12:42:21.769Z,984.43
2018-10-05T12:43:21.758Z,984.36
2018-10-05T12:44:21.747Z,984.36
2018-10-05T12:45:21.736Z,984.35
2018-10-05T12:46:21.726Z,984.31
2018-10-05T12:47:21.713Z,984.29
2018-10-05T12:48:21.703Z,984.31
2018-10-05T12:49:21.691Z,984.24
2018-10-05T12:50:21.678Z,984.24
2018-10-05T12:51:21.681Z,984.23
2018-10-05T12:52:21.656Z,984.28
2018-10-05T12:53:21.645Z,984.24
2018-10-05T12:54:21.634Z,984.24
2018-10-05T12:55:21.624Z,984.29
2018-10-05T12:56:21.627Z,984.24
2018-10-05T12:57:21.604Z,984.25
2018-10-05T12:58:21.597Z,984.17
2018-10-05T12:59:21.577Z,984.19
2018-10-05T13:00:21.570Z,984.23
2018-10-05T13:01:21.566Z,984.18
2018-10-05T13:02:21.544Z,984.15
2018-10-05T13:03:21.532Z,984.12
2018-10-05T13:04:21.512Z,984.15
2018-10-05T13:05:21.515Z,984.16
2018-10-05T13:06:21.510Z,984.13
2018-10-05T13:07:21.501Z,984.12
2018-10-05T13:08:21.485Z,984.14
2018-10-05T13:09:21.468Z,984.09
2018-10-05T13:10:21.457Z,984.10
2018-10-05T13:11:21.454Z,984.13
2018-10-05T13:12:21.427Z,984.09
2018-10-05T13:13:21.432Z,984.08
2018-10-05T13:14:21.416Z,984.06
2018-10-05T13:15:21.403Z,984.06
2018-10-05T13:16:21.404Z,984.04
2018-10-05T13:17:21.378Z,984.05
2018-10-05T13:18:21.355Z,984.04
2018-10-05T13:19:21.357Z,984.03
2018-10-05T13:20:21.344Z,983.98
2018-10-05T13:21:21.337Z,983.98
2018-10-05T13:22:21.322Z,983.95
2018-10-05T13:23:21.314Z,983.98
2018-10-05T13:24:21.300Z,983.95
2018-10-05T13:25:21.288Z,983.95
2018-10-05T13:26:21.362Z,983.97
2018-10-05T13:27:21.266Z,983.93
2018-10-05T13:28:21.253Z,983.96
2018-10-05T13:29:21.246Z,983.98
2018-10-05T13:30:21.231Z,983.89
2018-10-05T13:31:21.236Z,983.94
2018-10-05T13:32:21.213Z,983.89
2018-10-05T13:33:21.198Z,983.91
2018-10-05T13:34:21.186Z,983.86
2018-10-05T13:35:21.168Z,983.88
2018-10-05T13:36:21.174Z,983.83
2018-10-05T13:37:21.208Z,983.84
2018-10-05T13:38:21.146Z,983.78
2018-10-05T13:39:21.130Z,983.80
2018-10-05T13:40:21.119Z,983.79
2018-10-05T13:41:21.119Z,983.83
2018-10-05T13:42:21.103Z,983.78
2018-10-05T13:43:21.085Z,983.80
2018-10-05T13:44:21.075Z,983.77
2018-10-05T13:45:21.063Z,983.75
2018-10-05T13:46:21.061Z,983.73
2018-10-05T13:47:21.044Z,983.75
2018-10-05T13:48:21.030Z,983.71
2018-10-05T13:49:21.021Z,983.69
2018-10-05T13:50:21.007Z,983.71
2018-10-05T13:51:21.007Z,983.71
2018-10-05T13:52:20.983Z,983.69
2018-10-05T13:53:20.973Z,983.69
2018-10-05T13:54:20.965Z,983.65
2018-10-05T13:55:20.951Z,983.69
2018-10-05T13:56:20.946Z,983.67
2018-10-05T13:57:20.928Z,983.66
2018-10-05T13:58:20.915Z,983.71
2018-10-05T13:59:20.909Z,983.66
2018-10-05T14:00:20.897Z,983.67
2018-10-05T14:01:20.893Z,983.65
2018-10-05T14:02:20.906Z,983.64
2018-10-05T14:03:20.864Z,983.67
2018-10-05T14:04:20.853Z,983.62
2018-10-05T14:05:20.843Z,983.64
2018-10-05T14:06:20.838Z,983.63
2018-10-05T14:07:20.818Z,983.61
2018-10-05T14:08:20.807Z,983.59
2018-10-05T14:09:20.793Z,983.58
2018-10-05T14:10:20.825Z,983.54
2018-10-05T14:11:20.778Z,983.56
2018-10-05T14:12:20.746Z,983.48
2018-10-05T14:13:20.755Z,983.52
2018-10-05T14:14:20.739Z,983.48
2018-10-05T14:15:20.732Z,983.45
2018-10-05T14:16:20.741Z,983.43
2018-10-05T14:17:20.706Z,983.44
2018-10-05T14:18:20.682Z,983.46
2018-10-05T14:19:20.682Z,983.45
2018-10-05T14:20:20.697Z,983.46
2018-10-05T14:21:20.669Z,983.47
2018-10-05T14:22:20.651Z,983.45
2018-10-05T14:23:20.638Z,983.46
2018-10-05T14:24:20.627Z,983.42
2018-10-05T14:25:20.618Z,983.42
2018-10-05T14:26:20.616Z,983.42
2018-10-05T14:27:20.593Z,983.40
2018-10-05T14:28:20.582Z,983.41
2018-10-05T14:29:20.569Z,983.36
2018-10-05T14:30:20.558Z,983.37
2018-10-05T14:31:20.549Z,983.36
2018-10-05T14:32:20.535Z,983.35
2018-10-05T14:33:20.525Z,983.31
2018-10-05T14:34:20.518Z,983.32
2018-10-05T14:35:20.503Z,983.31
2018-10-05T14:36:20.503Z,983.30
2018-10-05T14:37:20.479Z,983.30
2018-10-05T14:38:20.470Z,983.29
2018-10-05T14:39:20.457Z,983.28
2018-10-05T14:40:20.446Z,983.23
2018-10-05T14:41:20.457Z,983.22
2018-10-05T14:42:20.423Z,983.15
2018-10-05T14:43:20.411Z,983.16
2018-10-05T14:44:20.402Z,983.12
2018-10-05T14:45:20.390Z,983.12
2018-10-05T14:46:20.421Z,983.11
2018-10-05T14:47:20.367Z,983.13
2018-10-05T14:48:20.355Z,983.12
2018-10-05T14:49:20.384Z,983.10
2018-10-05T14:50:20.333Z,983.12
2018-10-05T14:51:20.317Z,983.08
2018-10-05T14:52:20.329Z,983.06
2018-10-05T14:53:20.298Z,983.08
2018-10-05T14:54:20.288Z,983.09
2018-10-05T14:55:20.277Z,983.07
2018-10-05T14:56:20.266Z,983.04
2018-10-05T14:57:20.324Z,983.01
2018-10-05T14:58:20.231Z,983.05
2018-10-05T14:59:20.371Z,983.01
2018-10-05T15:00:20.220Z,983.05
2018-10-05T15:01:20.209Z,983.01
2018-10-05T15:02:20.210Z,982.99
2018-10-05T15:03:20.187Z,983.05
2018-10-05T15:04:20.175Z,983.00
2018-10-05T15:05:20.164Z,983.00
2018-10-05T15:06:20.153Z,982.98
2018-10-05T15:07:20.153Z,982.98
2018-10-05T15:08:20.129Z,982.95
2018-10-05T15:09:20.118Z,982.97
2018-10-05T15:10:20.108Z,982.90
2018-10-05T15:11:20.100Z,982.96
2018-10-05T15:12:20.093Z,982.95
2018-10-05T15:13:20.105Z,982.94
2018-10-05T15:14:20.067Z,982.93
2018-10-05T15:15:20.056Z,982.90
2018-10-05T15:16:20.031Z,982.93
2018-10-05T15:17:20.106Z,982.91
2018-10-05T15:18:20.021Z,982.93
2018-10-05T15:19:20.009Z,982.84
2018-10-05T15:20:20.002Z,982.84
2018-10-05T15:21:20.012Z,982.84
2018-10-05T15:22:19.984Z,982.88
2018-10-05T15:23:19.964Z,982.88
2018-10-05T15:24:19.953Z,982.80
2018-10-05T15:25:19.944Z,982.81
2018-10-05T15:26:19.923Z,982.79
2018-10-05T15:27:19.934Z,982.83
2018-10-05T15:28:19.908Z,982.76
2018-10-05T15:29:19.898Z,982.78
2018-10-05T15:30:19.889Z,982.77
2018-10-05T15:31:19.867Z,982.78
2018-10-05T15:32:19.871Z,982.75
2018-10-05T15:33:19.852Z,982.76
2018-10-05T15:34:19.840Z,982.77
2018-10-05T15:35:19.821Z,982.77
2018-10-05T15:36:19.817Z,982.77
2018-10-05T15:37:19.814Z,982.74
2018-10-05T15:38:19.788Z,982.75
2018-10-05T15:39:19.785Z,982.73
2018-10-05T15:40:19.766Z,982.70
2018-10-05T15:41:19.761Z,982.69
2018-10-05T15:42:19.761Z,982.70
2018-10-05T15:43:19.739Z,982.72
2018-10-05T15:44:19.727Z,982.66
2018-10-05T15:45:19.717Z,982.70
2018-10-05T15:46:19.697Z,982.64
2018-10-05T15:47:19.710Z,982.64
2018-10-05T15:48:19.682Z,982.64
2018-10-05T15:49:19.671Z,982.70
2018-10-05T15:50:19.659Z,982.68
2018-10-05T15:51:19.640Z,982.69
2018-10-05T15:52:19.653Z,982.68
2018-10-05T15:53:19.634Z,982.70
2018-10-05T15:54:19.614Z,982.69
2018-10-05T15:55:19.603Z,982.68
2018-10-05T15:56:19.592Z,982.65
2018-10-05T15:57:19.601Z,982.67
2018-10-05T15:58:19.569Z,982.68
2018-10-05T15:59:19.558Z,982.65
2018-10-05T16:00:19.547Z,982.69
2018-10-05T16:01:19.537Z,982.63
2018-10-05T16:02:19.540Z,982.61
2018-10-05T16:03:19.513Z,982.58
2018-10-05T16:04:19.502Z,982.64
2018-10-05T16:05:19.547Z,982.61
2018-10-05T16:06:19.498Z,982.65
2018-10-05T16:07:19.561Z,982.67
2018-10-05T16:08:19.457Z,982.67
2018-10-05T16:09:19.445Z,982.65
2018-10-05T16:10:19.434Z,982.68
2018-10-05T16:11:19.557Z,982.68
2018-10-05T16:12:19.452Z,982.66
2018-10-05T16:13:19.400Z,982.69
2018-10-05T16:14:19.417Z,982.73
2018-10-05T16:15:19.380Z,982.72
2018-10-05T16:16:19.538Z,982.67
2018-10-05T16:17:19.423Z,982.66
2018-10-05T16:18:19.416Z,982.67
2018-10-05T16:19:19.338Z,982.71
2018-10-05T16:20:19.326Z,982.72
2018-10-05T16:21:19.368Z,982.73
2018-10-05T16:22:19.383Z,982.69
2018-10-05T16:23:19.347Z,982.73
2018-10-05T16:24:19.334Z,982.71
2018-10-05T16:25:19.273Z,982.75
2018-10-05T16:26:19.254Z,982.76
2018-10-05T16:27:19.257Z,982.77